sensor_id;sensor_type;location;lat;lon;timestamp;pressure;altitude;pressure_sealevel;temperature;humidity
692;BME280;70475;50.084;8.576;2024-03-06T00:01:16;100782.78;;;5.61;100.00
692;BME280;70475;50.084;8.576;2024-03-06T00:03:45;100796.69;;;5.63;100.00
692;BME280;70475;50.084;8.576;2024-03-06T00:06:12;100795.84;;;5.89;100.00
692;BME280;70475;50.084;8.576;2024-03-06T00:08:40;100798.41;;;6.16;100.00
692;BME280;70475;50.084;8.576;2024-03-06T00:11:07;100804.97;;;6.30;100.00
692;BME280;70475;50.084;8.576;2024-03-06T00:13:35;100796.38;;;6.28;100.00
692;BME280;70475;50.084;8.576;2024-03-06T00:16:03;100807.72;;;6.03;100.00
692;BME280;70475;50.084;8.576;2024-03-06T00:18:31;100814.56;;;5.96;100.00
692;BME280;70475;50.084;8.576;2024-03-06T00:21:00;100807.25;;;5.90;100.00
692;BME280;70475;50.084;8.576;2024-03-06T00:23:27;100808.81;;;5.83;100.00
692;BME280;70475;50.084;8.576;2024-03-06T00:25:55;100809.97;;;5.71;100.00
692;BME280;70475;50.084;8.576;2024-03-06T00:28:22;100815.31;;;5.61;100.00
692;BME280;70475;50.084;8.576;2024-03-06T00:30:50;100824.81;;;5.54;100.00
692;BME280;70475;50.084;8.576;2024-03-06T00:33:18;100826.44;;;5.38;100.00
692;BME280;70475;50.084;8.576;2024-03-06T00:35:46;100822.16;;;5.27;100.00
692;BME280;70475;50.084;8.576;2024-03-06T00:38:15;100834.00;;;5.23;100.00
692;BME280;70475;50.084;8.576;2024-03-06T00:40:43;100838.03;;;5.18;100.00
692;BME280;70475;50.084;8.576;2024-03-06T00:43:10;100840.72;;;5.08;100.00
692;BME280;70475;50.084;8.576;2024-03-06T00:45:38;100835.47;;;4.99;100.00
692;BME280;70475;50.084;8.576;2024-03-06T00:48:06;100832.16;;;4.97;100.00
692;BME280;70475;50.084;8.576;2024-03-06T00:50:34;100834.53;;;4.90;100.00
692;BME280;70475;50.084;8.576;2024-03-06T00:53:01;100824.97;;;4.80;100.00
692;BME280;70475;50.084;8.576;2024-03-06T00:55:32;100824.94;;;4.89;100.00
692;BME280;70475;50.084;8.576;2024-03-06T00:57:59;100839.09;;;4.98;100.00
692;BME280;70475;50.084;8.576;2024-03-06T01:00:27;100838.38;;;4.96;100.00
692;BME280;70475;50.084;8.576;2024-03-06T01:02:55;100834.41;;;4.82;100.00
692;BME280;70475;50.084;8.576;2024-03-06T01:05:22;100841.09;;;4.67;100.00
692;BME280;70475;50.084;8.576;2024-03-06T01:07:50;100838.06;;;4.53;100.00
692;BME280;70475;50.084;8.576;2024-03-06T01:10:18;100846.81;;;4.44;100.00
692;BME280;70475;50.084;8.576;2024-03-06T01:12:47;100840.56;;;4.54;100.00
692;BME280;70475;50.084;8.576;2024-03-06T01:15:14;100843.06;;;4.46;100.00
692;BME280;70475;50.084;8.576;2024-03-06T01:17:42;100851.53;;;4.31;100.00
692;BME280;70475;50.084;8.576;2024-03-06T01:20:10;100843.06;;;4.17;100.00
692;BME280;70475;50.084;8.576;2024-03-06T01:22:38;100843.06;;;4.08;100.00
692;BME280;70475;50.084;8.576;2024-03-06T01:25:06;100848.47;;;4.06;100.00
692;BME280;70475;50.084;8.576;2024-03-06T01:27:33;100846.94;;;4.04;100.00
692;BME280;70475;50.084;8.576;2024-03-06T01:30:03;100859.13;;;3.95;100.00
692;BME280;70475;50.084;8.576;2024-03-06T01:32:30;100851.91;;;3.88;100.00
692;BME280;70475;50.084;8.576;2024-03-06T01:34:59;100856.22;;;3.89;100.00
692;BME280;70475;50.084;8.576;2024-03-06T01:37:27;100852.47;;;3.91;100.00
692;BME280;70475;50.084;8.576;2024-03-06T01:39:55;100852.34;;;3.83;100.00
692;BME280;70475;50.084;8.576;2024-03-06T01:42:22;100861.19;;;3.82;100.00
692;BME280;70475;50.084;8.576;2024-03-06T01:44:50;100862.69;;;3.75;100.00
692;BME280;70475;50.084;8.576;2024-03-06T01:47:19;100861.88;;;3.84;100.00
692;BME280;70475;50.084;8.576;2024-03-06T01:49:46;100859.38;;;3.92;100.00
692;BME280;70475;50.084;8.576;2024-03-06T01:52:16;100859.69;;;3.99;100.00
692;BME280;70475;50.084;8.576;2024-03-06T01:54:45;100865.53;;;4.02;100.00
692;BME280;70475;50.084;8.576;2024-03-06T01:57:16;100851.94;;;3.97;100.00
692;BME280;70475;50.084;8.576;2024-03-06T01:59:44;100859.25;;;3.94;100.00
692;BME280;70475;50.084;8.576;2024-03-06T02:02:12;100863.69;;;3.84;100.00
692;BME280;70475;50.084;8.576;2024-03-06T02:04:41;100871.72;;;3.82;100.00
692;BME280;70475;50.084;8.576;2024-03-06T02:07:10;100860.22;;;3.83;100.00
692;BME280;70475;50.084;8.576;2024-03-06T02:09:38;100862.16;;;3.81;100.00
692;BME280;70475;50.084;8.576;2024-03-06T02:12:06;100861.31;;;3.71;100.00
692;BME280;70475;50.084;8.576;2024-03-06T02:14:35;100859.88;;;3.67;100.00
692;BME280;70475;50.084;8.576;2024-03-06T02:17:02;100861.00;;;3.65;100.00
692;BME280;70475;50.084;8.576;2024-03-06T02:19:38;100876.78;;;3.55;100.00
692;BME280;70475;50.084;8.576;2024-03-06T02:22:07;100872.06;;;3.49;100.00
692;BME280;70475;50.084;8.576;2024-03-06T02:24:35;100872.59;;;3.43;100.00
692;BME280;70475;50.084;8.576;2024-03-06T02:27:03;100865.22;;;3.37;100.00
692;BME280;70475;50.084;8.576;2024-03-06T02:29:32;100872.66;;;3.32;100.00
692;BME280;70475;50.084;8.576;2024-03-06T02:32:00;100874.59;;;3.30;100.00
692;BME280;70475;50.084;8.576;2024-03-06T02:34:28;100871.53;;;3.25;100.00
692;BME280;70475;50.084;8.576;2024-03-06T02:36:56;100862.63;;;3.17;100.00
692;BME280;70475;50.084;8.576;2024-03-06T02:39:25;100873.72;;;3.20;100.00
692;BME280;70475;50.084;8.576;2024-03-06T02:41:53;100866.06;;;3.17;100.00
692;BME280;70475;50.084;8.576;2024-03-06T02:44:20;100869.69;;;3.16;100.00
692;BME280;70475;50.084;8.576;2024-03-06T02:46:48;100873.53;;;3.12;100.00
692;BME280;70475;50.084;8.576;2024-03-06T02:49:16;100870.03;;;3.02;100.00
692;BME280;70475;50.084;8.576;2024-03-06T02:51:44;100874.00;;;2.97;100.00
692;BME280;70475;50.084;8.576;2024-03-06T02:54:12;100870.44;;;2.98;100.00
692;BME280;70475;50.084;8.576;2024-03-06T02:56:41;100870.56;;;2.96;100.00
692;BME280;70475;50.084;8.576;2024-03-06T02:59:09;100872.00;;;2.89;100.00
692;BME280;70475;50.084;8.576;2024-03-06T03:01:37;100867.94;;;2.96;100.00
692;BME280;70475;50.084;8.576;2024-03-06T03:04:04;100870.69;;;2.95;100.00
692;BME280;70475;50.084;8.576;2024-03-06T03:06:33;100872.81;;;2.80;100.00
692;BME280;70475;50.084;8.576;2024-03-06T03:09:01;100872.47;;;2.74;100.00
692;BME280;70475;50.084;8.576;2024-03-06T03:11:30;100870.22;;;2.69;100.00
692;BME280;70475;50.084;8.576;2024-03-06T03:13:59;100867.09;;;2.75;100.00
692;BME280;70475;50.084;8.576;2024-03-06T03:16:27;100862.81;;;2.74;100.00
692;BME280;70475;50.084;8.576;2024-03-06T03:18:54;100875.09;;;2.74;100.00
692;BME280;70475;50.084;8.576;2024-03-06T03:21:22;100870.22;;;2.69;100.00
692;BME280;70475;50.084;8.576;2024-03-06T03:23:49;100874.09;;;2.65;100.00
692;BME280;70475;50.084;8.576;2024-03-06T03:26:17;100882.22;;;2.62;100.00
692;BME280;70475;50.084;8.576;2024-03-06T03:28:45;100884.13;;;2.60;100.00
692;BME280;70475;50.084;8.576;2024-03-06T03:31:14;100877.91;;;2.61;100.00
692;BME280;70475;50.084;8.576;2024-03-06T03:33:41;100886.03;;;2.58;100.00
692;BME280;70475;50.084;8.576;2024-03-06T03:36:09;100890.63;;;2.56;100.00
692;BME280;70475;50.084;8.576;2024-03-06T03:38:37;100885.38;;;2.56;100.00
692;BME280;70475;50.084;8.576;2024-03-06T03:41:08;100885.38;;;2.56;100.00
692;BME280;70475;50.084;8.576;2024-03-06T03:43:36;100882.00;;;2.54;100.00
692;BME280;70475;50.084;8.576;2024-03-06T03:46:03;100892.78;;;2.51;100.00
692;BME280;70475;50.084;8.576;2024-03-06T03:48:34;100886.22;;;2.57;100.00
692;BME280;70475;50.084;8.576;2024-03-06T03:51:03;100892.88;;;2.61;100.00
692;BME280;70475;50.084;8.576;2024-03-06T03:53:31;100896.44;;;2.60;100.00
692;BME280;70475;50.084;8.576;2024-03-06T03:55:59;100895.13;;;2.65;100.00
692;BME280;70475;50.084;8.576;2024-03-06T03:58:27;100897.03;;;2.63;100.00
692;BME280;70475;50.084;8.576;2024-03-06T04:00:55;100901.69;;;2.60;100.00
692;BME280;70475;50.084;8.576;2024-03-06T04:03:22;100903.78;;;2.45;100.00
692;BME280;70475;50.084;8.576;2024-03-06T04:05:52;100907.75;;;2.40;100.00
692;BME280;70475;50.084;8.576;2024-03-06T04:08:20;100903.59;;;2.37;100.00
692;BME280;70475;50.084;8.576;2024-03-06T04:10:47;100903.22;;;2.42;100.00
692;BME280;70475;50.084;8.576;2024-03-06T04:13:15;100911.00;;;2.43;100.00
692;BME280;70475;50.084;8.576;2024-03-06T04:15:43;100910.50;;;2.49;100.00
692;BME280;70475;50.084;8.576;2024-03-06T04:18:11;100917.66;;;2.47;100.00
692;BME280;70475;50.084;8.576;2024-03-06T04:20:39;100910.88;;;2.45;100.00
692;BME280;70475;50.084;8.576;2024-03-06T04:23:08;100910.66;;;2.37;100.00
692;BME280;70475;50.084;8.576;2024-03-06T04:25:35;100909.56;;;2.39;100.00
692;BME280;70475;50.084;8.576;2024-03-06T04:28:04;100923.28;;;2.43;100.00
692;BME280;70475;50.084;8.576;2024-03-06T04:30:33;100921.75;;;2.40;100.00
692;BME280;70475;50.084;8.576;2024-03-06T04:33:01;100929.03;;;2.37;100.00
692;BME280;70475;50.084;8.576;2024-03-06T04:35:28;100935.13;;;2.37;100.00
692;BME280;70475;50.084;8.576;2024-03-06T04:37:56;100930.75;;;2.27;100.00
692;BME280;70475;50.084;8.576;2024-03-06T04:40:25;100924.63;;;2.37;100.00
692;BME280;70475;50.084;8.576;2024-03-06T04:42:52;100933.44;;;2.36;100.00
692;BME280;70475;50.084;8.576;2024-03-06T04:45:20;100935.81;;;2.39;100.00
692;BME280;70475;50.084;8.576;2024-03-06T04:47:47;100945.16;;;2.43;100.00
692;BME280;70475;50.084;8.576;2024-03-06T04:50:15;100938.44;;;2.39;100.00
692;BME280;70475;50.084;8.576;2024-03-06T04:52:44;100935.56;;;2.42;100.00
692;BME280;70475;50.084;8.576;2024-03-06T04:55:11;100936.66;;;2.40;100.00
692;BME280;70475;50.084;8.576;2024-03-06T04:57:43;100937.50;;;2.40;100.00
692;BME280;70475;50.084;8.576;2024-03-06T05:00:12;100936.31;;;2.33;100.00
692;BME280;70475;50.084;8.576;2024-03-06T05:02:40;100939.31;;;2.40;100.00
692;BME280;70475;50.084;8.576;2024-03-06T05:05:26;100950.44;;;2.32;100.00
692;BME280;70475;50.084;8.576;2024-03-06T05:08:11;100950.66;;;2.29;100.00
692;BME280;70475;50.084;8.576;2024-03-06T05:10:59;100962.47;;;2.35;100.00
692;BME280;70475;50.084;8.576;2024-03-06T05:13:47;100972.63;;;2.39;100.00
692;BME280;70475;50.084;8.576;2024-03-06T05:16:33;100965.44;;;2.52;100.00
692;BME280;70475;50.084;8.576;2024-03-06T05:19:19;100972.94;;;2.57;100.00
692;BME280;70475;50.084;8.576;2024-03-06T05:22:04;100967.59;;;2.47;100.00
692;BME280;70475;50.084;8.576;2024-03-06T05:24:50;100971.31;;;2.45;100.00
692;BME280;70475;50.084;8.576;2024-03-06T05:27:35;100974.25;;;2.51;100.00
692;BME280;70475;50.084;8.576;2024-03-06T05:30:21;100978.44;;;2.54;100.00
692;BME280;70475;50.084;8.576;2024-03-06T05:33:07;100972.66;;;2.60;100.00
692;BME280;70475;50.084;8.576;2024-03-06T05:35:55;100980.00;;;2.56;100.00
692;BME280;70475;50.084;8.576;2024-03-06T05:38:40;100975.28;;;2.60;100.00
692;BME280;70475;50.084;8.576;2024-03-06T05:41:25;100990.25;;;2.59;100.00
692;BME280;70475;50.084;8.576;2024-03-06T05:44:10;100986.22;;;2.55;100.00
692;BME280;70475;50.084;8.576;2024-03-06T05:46:57;100985.38;;;2.55;100.00
692;BME280;70475;50.084;8.576;2024-03-06T05:49:42;101003.66;;;2.45;100.00
692;BME280;70475;50.084;8.576;2024-03-06T05:52:27;100998.78;;;2.41;100.00
692;BME280;70475;50.084;8.576;2024-03-06T05:55:12;101009.41;;;2.39;100.00
692;BME280;70475;50.084;8.576;2024-03-06T05:57:58;101013.25;;;2.35;100.00
692;BME280;70475;50.084;8.576;2024-03-06T06:00:37;101018.13;;;2.40;100.00
692;BME280;70475;50.084;8.576;2024-03-06T06:03:07;101018.88;;;2.31;100.00
692;BME280;70475;50.084;8.576;2024-03-06T06:05:36;101028.56;;;2.30;100.00
692;BME280;70475;50.084;8.576;2024-03-06T06:08:05;101033.28;;;2.36;100.00
692;BME280;70475;50.084;8.576;2024-03-06T06:10:33;101032.13;;;2.40;100.00
692;BME280;70475;50.084;8.576;2024-03-06T06:13:01;101037.22;;;2.53;100.00
692;BME280;70475;50.084;8.576;2024-03-06T06:15:31;101040.31;;;2.58;100.00
692;BME280;70475;50.084;8.576;2024-03-06T06:17:59;101036.00;;;2.68;100.00
692;BME280;70475;50.084;8.576;2024-03-06T06:20:28;101042.91;;;2.69;100.00
692;BME280;70475;50.084;8.576;2024-03-06T06:22:55;101047.09;;;2.71;100.00
692;BME280;70475;50.084;8.576;2024-03-06T06:25:24;101050.78;;;2.80;100.00
692;BME280;70475;50.084;8.576;2024-03-06T06:28:09;101053.78;;;2.75;100.00
692;BME280;70475;50.084;8.576;2024-03-06T06:30:37;101042.75;;;2.81;100.00
692;BME280;70475;50.084;8.576;2024-03-06T06:33:05;101050.53;;;2.83;100.00
692;BME280;70475;50.084;8.576;2024-03-06T06:35:34;101049.53;;;2.95;100.00
692;BME280;70475;50.084;8.576;2024-03-06T06:38:02;101046.56;;;2.88;100.00
692;BME280;70475;50.084;8.576;2024-03-06T06:40:31;101044.41;;;2.93;100.00
692;BME280;70475;50.084;8.576;2024-03-06T06:42:58;101056.44;;;2.96;100.00
692;BME280;70475;50.084;8.576;2024-03-06T06:45:26;101049.47;;;3.06;100.00
692;BME280;70475;50.084;8.576;2024-03-06T06:47:54;101057.84;;;3.11;100.00
692;BME280;70475;50.084;8.576;2024-03-06T06:50:22;101059.59;;;3.21;100.00
692;BME280;70475;50.084;8.576;2024-03-06T06:52:53;101061.84;;;3.26;100.00
692;BME280;70475;50.084;8.576;2024-03-06T06:55:21;101063.56;;;3.36;100.00
692;BME280;70475;50.084;8.576;2024-03-06T06:57:50;101064.28;;;3.38;100.00
692;BME280;70475;50.084;8.576;2024-03-06T07:00:19;101064.59;;;3.65;100.00
692;BME280;70475;50.084;8.576;2024-03-06T07:02:49;101071.41;;;3.68;100.00
692;BME280;70475;50.084;8.576;2024-03-06T07:05:17;101073.75;;;3.91;100.00
692;BME280;70475;50.084;8.576;2024-03-06T07:07:45;101073.16;;;4.08;100.00
692;BME280;70475;50.084;8.576;2024-03-06T07:10:16;101079.56;;;4.15;100.00
692;BME280;70475;50.084;8.576;2024-03-06T07:12:44;101075.72;;;3.99;100.00
692;BME280;70475;50.084;8.576;2024-03-06T07:15:11;101077.66;;;3.97;100.00
692;BME280;70475;50.084;8.576;2024-03-06T07:17:39;101080.22;;;4.08;100.00
692;BME280;70475;50.084;8.576;2024-03-06T07:20:07;101085.69;;;3.95;100.00
692;BME280;70475;50.084;8.576;2024-03-06T07:22:36;101093.59;;;3.95;100.00
692;BME280;70475;50.084;8.576;2024-03-06T07:25:04;101102.75;;;4.21;100.00
692;BME280;70475;50.084;8.576;2024-03-06T07:27:33;101100.63;;;4.46;100.00
692;BME280;70475;50.084;8.576;2024-03-06T07:30:01;101110.94;;;4.58;100.00
692;BME280;70475;50.084;8.576;2024-03-06T07:32:29;101120.16;;;4.73;100.00
692;BME280;70475;50.084;8.576;2024-03-06T07:34:56;101121.25;;;4.71;100.00
692;BME280;70475;50.084;8.576;2024-03-06T07:37:25;101128.47;;;4.78;100.00
692;BME280;70475;50.084;8.576;2024-03-06T07:39:52;101128.38;;;4.89;100.00
692;BME280;70475;50.084;8.576;2024-03-06T07:42:20;101137.72;;;5.12;100.00
692;BME280;70475;50.084;8.576;2024-03-06T07:44:49;101136.91;;;5.12;100.00
692;BME280;70475;50.084;8.576;2024-03-06T07:47:17;101139.94;;;5.17;100.00
692;BME280;70475;50.084;8.576;2024-03-06T07:49:45;101135.13;;;5.41;100.00
692;BME280;70475;50.084;8.576;2024-03-06T07:52:13;101144.00;;;5.40;100.00
692;BME280;70475;50.084;8.576;2024-03-06T07:54:40;101131.63;;;5.88;100.00
692;BME280;70475;50.084;8.576;2024-03-06T07:57:08;101139.19;;;6.19;100.00
692;BME280;70475;50.084;8.576;2024-03-06T07:59:36;101135.38;;;6.41;100.00
692;BME280;70475;50.084;8.576;2024-03-06T08:02:05;101145.75;;;6.52;100.00
692;BME280;70475;50.084;8.576;2024-03-06T08:04:33;101147.84;;;6.58;100.00
692;BME280;70475;50.084;8.576;2024-03-06T08:07:01;101144.50;;;7.10;100.00
692;BME280;70475;50.084;8.576;2024-03-06T08:09:29;101148.06;;;7.36;100.00
692;BME280;70475;50.084;8.576;2024-03-06T08:11:56;101143.06;;;7.51;100.00
692;BME280;70475;50.084;8.576;2024-03-06T08:14:24;101149.69;;;7.02;100.00
692;BME280;70475;50.084;8.576;2024-03-06T08:16:52;101152.31;;;7.47;100.00
692;BME280;70475;50.084;8.576;2024-03-06T08:19:21;101151.53;;;7.72;100.00
692;BME280;70475;50.084;8.576;2024-03-06T08:21:51;101162.31;;;7.53;100.00
692;BME280;70475;50.084;8.576;2024-03-06T08:24:18;101160.38;;;7.10;100.00
692;BME280;70475;50.084;8.576;2024-03-06T08:26:46;101161.63;;;7.68;100.00
692;BME280;70475;50.084;8.576;2024-03-06T08:29:14;101168.31;;;7.98;100.00
692;BME280;70475;50.084;8.576;2024-03-06T08:31:42;101163.47;;;8.11;100.00
692;BME280;70475;50.084;8.576;2024-03-06T08:34:09;101168.44;;;7.53;100.00
692;BME280;70475;50.084;8.576;2024-03-06T08:36:38;101166.81;;;7.95;100.00
692;BME280;70475;50.084;8.576;2024-03-06T08:39:06;101159.78;;;8.29;100.00
692;BME280;70475;50.084;8.576;2024-03-06T08:41:33;101168.75;;;8.28;100.00
692;BME280;70475;50.084;8.576;2024-03-06T08:44:01;101159.09;;;8.27;100.00
692;BME280;70475;50.084;8.576;2024-03-06T08:46:29;101169.63;;;8.37;100.00
692;BME280;70475;50.084;8.576;2024-03-06T08:48:57;101166.69;;;8.48;100.00
692;BME280;70475;50.084;8.576;2024-03-06T08:51:29;101168.16;;;8.43;100.00
692;BME280;70475;50.084;8.576;2024-03-06T08:53:58;101174.31;;;8.43;100.00
692;BME280;70475;50.084;8.576;2024-03-06T08:56:25;101176.53;;;8.56;100.00
692;BME280;70475;50.084;8.576;2024-03-06T08:58:53;101179.41;;;8.62;100.00
692;BME280;70475;50.084;8.576;2024-03-06T09:01:21;101174.06;;;8.88;100.00
692;BME280;70475;50.084;8.576;2024-03-06T09:03:48;101173.78;;;9.07;100.00
692;BME280;70475;50.084;8.576;2024-03-06T09:06:16;101167.91;;;8.87;100.00
692;BME280;70475;50.084;8.576;2024-03-06T09:08:43;101168.50;;;9.23;100.00
692;BME280;70475;50.084;8.576;2024-03-06T09:11:12;101174.59;;;9.07;100.00
692;BME280;70475;50.084;8.576;2024-03-06T09:13:40;101182.56;;;8.99;100.00
692;BME280;70475;50.084;8.576;2024-03-06T09:16:07;101178.91;;;9.00;100.00
692;BME280;70475;50.084;8.576;2024-03-06T09:18:35;101182.59;;;8.74;100.00
692;BME280;70475;50.084;8.576;2024-03-06T09:21:03;101178.00;;;8.84;100.00
692;BME280;70475;50.084;8.576;2024-03-06T09:23:30;101182.03;;;8.96;100.00
692;BME280;70475;50.084;8.576;2024-03-06T09:25:59;101180.09;;;9.14;100.00
692;BME280;70475;50.084;8.576;2024-03-06T09:28:28;101183.03;;;9.03;100.00
692;BME280;70475;50.084;8.576;2024-03-06T09:30:56;101184.50;;;9.39;100.00
692;BME280;70475;50.084;8.576;2024-03-06T09:33:23;101187.84;;;9.41;100.00
692;BME280;70475;50.084;8.576;2024-03-06T09:35:51;101174.88;;;9.46;100.00
692;BME280;70475;50.084;8.576;2024-03-06T09:38:18;101182.31;;;9.34;100.00
692;BME280;70475;50.084;8.576;2024-03-06T09:40:46;101177.72;;;9.60;100.00
692;BME280;70475;50.084;8.576;2024-03-06T09:43:15;101179.56;;;9.68;100.00
692;BME280;70475;50.084;8.576;2024-03-06T09:45:46;101173.75;;;9.64;100.00
692;BME280;70475;50.084;8.576;2024-03-06T09:48:16;101178.56;;;9.69;100.00
692;BME280;70475;50.084;8.576;2024-03-06T09:50:48;101178.59;;;10.09;100.00
692;BME280;70475;50.084;8.576;2024-03-06T09:53:18;101175.91;;;9.77;100.00
692;BME280;70475;50.084;8.576;2024-03-06T09:55:48;101174.94;;;9.94;100.00
692;BME280;70475;50.084;8.576;2024-03-06T09:58:16;101176.91;;;10.00;100.00
692;BME280;70475;50.084;8.576;2024-03-06T10:00:48;101182.41;;;10.06;100.00
692;BME280;70475;50.084;8.576;2024-03-06T10:03:16;101176.09;;;10.23;100.00
692;BME280;70475;50.084;8.576;2024-03-06T10:05:44;101182.03;;;10.41;100.00
692;BME280;70475;50.084;8.576;2024-03-06T10:08:11;101184.22;;;10.30;100.00
692;BME280;70475;50.084;8.576;2024-03-06T10:10:42;101175.59;;;10.12;100.00
692;BME280;70475;50.084;8.576;2024-03-06T10:13:16;101179.56;;;10.32;100.00
692;BME280;70475;50.084;8.576;2024-03-06T10:15:55;101182.16;;;10.64;100.00
692;BME280;70475;50.084;8.576;2024-03-06T10:18:26;101184.66;;;10.66;100.00
692;BME280;70475;50.084;8.576;2024-03-06T10:20:54;101174.84;;;10.58;100.00
692;BME280;70475;50.084;8.576;2024-03-06T10:23:22;101182.63;;;10.76;100.00
692;BME280;70475;50.084;8.576;2024-03-06T10:25:50;101183.38;;;10.46;100.00
692;BME280;70475;50.084;8.576;2024-03-06T10:28:21;101182.88;;;10.50;100.00
692;BME280;70475;50.084;8.576;2024-03-06T10:30:51;101188.38;;;10.32;100.00
692;BME280;70475;50.084;8.576;2024-03-06T10:33:19;101184.53;;;10.43;100.00
692;BME280;70475;50.084;8.576;2024-03-06T10:35:48;101189.19;;;10.57;100.00
692;BME280;70475;50.084;8.576;2024-03-06T10:38:16;101195.50;;;10.48;100.00
692;BME280;70475;50.084;8.576;2024-03-06T10:40:50;101192.06;;;10.23;100.00
692;BME280;70475;50.084;8.576;2024-03-06T10:43:18;101187.53;;;10.40;100.00
692;BME280;70475;50.084;8.576;2024-03-06T10:45:49;101179.66;;;10.71;100.00
692;BME280;70475;50.084;8.576;2024-03-06T10:48:20;101178.06;;;10.92;100.00
692;BME280;70475;50.084;8.576;2024-03-06T10:50:49;101184.41;;;10.91;100.00
692;BME280;70475;50.084;8.576;2024-03-06T10:53:18;101182.50;;;10.69;100.00
692;BME280;70475;50.084;8.576;2024-03-06T10:55:50;101180.09;;;10.82;100.00
692;BME280;70475;50.084;8.576;2024-03-06T10:58:20;101186.84;;;10.46;100.00
692;BME280;70475;50.084;8.576;2024-03-06T11:00:48;101193.88;;;10.47;100.00
692;BME280;70475;50.084;8.576;2024-03-06T11:03:16;101197.84;;;10.43;100.00
692;BME280;70475;50.084;8.576;2024-03-06T11:05:45;101194.63;;;10.72;100.00
692;BME280;70475;50.084;8.576;2024-03-06T11:08:15;101205.00;;;10.51;100.00
692;BME280;70475;50.084;8.576;2024-03-06T11:10:43;101198.16;;;10.56;100.00
692;BME280;70475;50.084;8.576;2024-03-06T11:13:21;101196.16;;;10.58;100.00
692;BME280;70475;50.084;8.576;2024-03-06T11:15:51;101201.13;;;10.69;100.00
692;BME280;70475;50.084;8.576;2024-03-06T11:18:42;101206.28;;;10.71;100.00
692;BME280;70475;50.084;8.576;2024-03-06T11:21:30;101194.13;;;10.76;100.00
692;BME280;70475;50.084;8.576;2024-03-06T11:24:17;101200.63;;;10.74;100.00
692;BME280;70475;50.084;8.576;2024-03-06T11:26:48;101203.06;;;10.91;100.00
692;BME280;70475;50.084;8.576;2024-03-06T11:29:17;101208.28;;;10.69;100.00
692;BME280;70475;50.084;8.576;2024-03-06T11:32:02;101215.13;;;10.55;100.00
692;BME280;70475;50.084;8.576;2024-03-06T11:34:30;101208.84;;;10.32;100.00
692;BME280;70475;50.084;8.576;2024-03-06T11:36:59;101213.03;;;10.26;100.00
692;BME280;70475;50.084;8.576;2024-03-06T11:39:33;101208.53;;;10.27;100.00
692;BME280;70475;50.084;8.576;2024-03-06T11:42:03;101207.69;;;10.43;100.00
692;BME280;70475;50.084;8.576;2024-03-06T11:44:35;101209.59;;;10.73;100.00
692;BME280;70475;50.084;8.576;2024-03-06T11:47:04;101206.31;;;10.55;100.00
692;BME280;70475;50.084;8.576;2024-03-06T11:49:35;101208.00;;;10.56;100.00
692;BME280;70475;50.084;8.576;2024-03-06T11:52:07;101216.47;;;10.51;100.00
692;BME280;70475;50.084;8.576;2024-03-06T11:54:36;101209.81;;;10.63;100.00
692;BME280;70475;50.084;8.576;2024-03-06T11:57:05;101206.91;;;10.81;100.00
692;BME280;70475;50.084;8.576;2024-03-06T11:59:33;101208.50;;;10.98;100.00
692;BME280;70475;50.084;8.576;2024-03-06T12:02:03;101201.94;;;11.16;100.00
692;BME280;70475;50.084;8.576;2024-03-06T12:04:33;101203.25;;;11.20;100.00
692;BME280;70475;50.084;8.576;2024-03-06T12:07:01;101202.91;;;11.23;100.00
692;BME280;70475;50.084;8.576;2024-03-06T12:09:34;101213.69;;;11.91;100.00
692;BME280;70475;50.084;8.576;2024-03-06T12:12:08;101202.47;;;12.32;100.00
692;BME280;70475;50.084;8.576;2024-03-06T12:14:37;101204.56;;;11.85;100.00
692;BME280;70475;50.084;8.576;2024-03-06T12:17:05;101205.69;;;11.60;100.00
692;BME280;70475;50.084;8.576;2024-03-06T12:19:35;101202.13;;;11.45;100.00
692;BME280;70475;50.084;8.576;2024-03-06T12:22:03;101200.56;;;11.51;100.00
692;BME280;70475;50.084;8.576;2024-03-06T12:24:32;101203.34;;;11.65;100.00
692;BME280;70475;50.084;8.576;2024-03-06T12:27:00;101196.78;;;11.45;100.00
692;BME280;70475;50.084;8.576;2024-03-06T12:29:31;101195.03;;;11.60;100.00
692;BME280;70475;50.084;8.576;2024-03-06T12:31:59;101197.13;;;11.42;100.00
692;BME280;70475;50.084;8.576;2024-03-06T12:34:27;101193.28;;;11.75;100.00
692;BME280;70475;50.084;8.576;2024-03-06T12:36:56;101195.41;;;12.02;100.00
692;BME280;70475;50.084;8.576;2024-03-06T12:39:24;101192.88;;;12.23;100.00
692;BME280;70475;50.084;8.576;2024-03-06T12:41:53;101195.94;;;12.35;100.00
692;BME280;70475;50.084;8.576;2024-03-06T12:44:20;101197.50;;;12.29;100.00
692;BME280;70475;50.084;8.576;2024-03-06T12:46:48;101202.16;;;11.90;100.00
692;BME280;70475;50.084;8.576;2024-03-06T12:49:16;101204.66;;;11.92;100.00
692;BME280;70475;50.084;8.576;2024-03-06T12:51:44;101199.75;;;12.03;100.00
692;BME280;70475;50.084;8.576;2024-03-06T12:54:12;101204.28;;;12.17;100.00
692;BME280;70475;50.084;8.576;2024-03-06T12:56:39;101207.63;;;11.97;100.00
692;BME280;70475;50.084;8.576;2024-03-06T12:59:09;101203.34;;;11.65;100.00
692;BME280;70475;50.084;8.576;2024-03-06T13:01:37;101202.00;;;11.69;100.00
692;BME280;70475;50.084;8.576;2024-03-06T13:04:04;101205.69;;;11.60;100.00
692;BME280;70475;50.084;8.576;2024-03-06T13:06:33;101199.28;;;11.47;100.00
692;BME280;70475;50.084;8.576;2024-03-06T13:09:01;101206.94;;;11.50;100.00
692;BME280;70475;50.084;8.576;2024-03-06T13:11:29;101199.28;;;11.47;100.00
692;BME280;70475;50.084;8.576;2024-03-06T13:13:56;101206.16;;;11.72;100.00
692;BME280;70475;50.084;8.576;2024-03-06T13:16:25;101202.63;;;11.71;100.00
692;BME280;70475;50.084;8.576;2024-03-06T13:18:54;101209.59;;;11.50;100.00
692;BME280;70475;50.084;8.576;2024-03-06T13:21:23;101197.13;;;11.42;100.00